Time;durP1;ratioP1;P1;durP2;ratioP2;P2;SDS_P1;SDS_P2;PMS_P1;PMS_P2;Temp;Humidity;BMP_temperature;BMP_pressure;BME280_temperature;BME280_humidity;BME280_pressure;Samples;Min_cycle;Max_cycle;Signal;HPM_P1;HPM_P2
2023/04/23 00:02:05;;;;;;;2.33;1.80;;;14.80;99.90;;;;;;4975404;28;20494;-89
2023/04/23 00:04:35;;;;;;;1.75;1.52;;;14.80;99.90;;;;;;4975606;28;20025;-90
2023/04/23 00:07:02;;;;;;;2.15;1.60;;;14.80;99.90;;;;;;4974905;28;20042;-90
2023/04/23 00:09:31;;;;;;;1.88;1.60;;;14.80;99.90;;;;;;4975886;28;20377;-90
2023/04/23 00:11:57;;;;;;;1.67;1.58;;;14.80;99.90;;;;;;4974134;28;20395;-90
2023/04/23 00:14:23;;;;;;;3.38;1.80;;;14.80;99.90;;;;;;4990194;28;20070;-90
2023/04/23 00:16:49;;;;;;;1.73;1.63;;;14.90;99.90;;;;;;4973978;28;20109;-90
2023/04/23 00:19:15;;;;;;;3.10;2.05;;;14.90;99.90;;;;;;4975250;28;20035;-90
2023/04/23 00:21:40;;;;;;;2.30;2.10;;;14.90;99.90;;;;;;4974790;28;20543;-90
2023/04/23 00:24:06;;;;;;;2.13;2.00;;;14.80;99.90;;;;;;4974213;28;20117;-90
2023/04/23 00:26:32;;;;;;;3.55;2.40;;;14.70;99.90;;;;;;4974568;28;20062;-90
2023/04/23 00:28:57;;;;;;;2.60;2.40;;;14.80;99.90;;;;;;4973431;28;20054;-90
2023/04/23 00:31:25;;;;;;;3.42;2.67;;;14.80;99.90;;;;;;4974162;28;20034;-89
2023/04/23 00:33:51;;;;;;;4.32;2.92;;;14.90;99.90;;;;;;4974373;28;20377;-90
2023/04/23 00:36:17;;;;;;;3.95;2.67;;;14.90;99.90;;;;;;4973568;28;20544;-90
2023/04/23 00:38:43;;;;;;;3.58;2.70;;;14.90;99.90;;;;;;4974544;28;20110;-89
2023/04/23 00:41:09;;;;;;;3.47;3.20;;;14.90;99.90;;;;;;4974769;28;20030;-90
2023/04/23 00:43:36;;;;;;;4.85;3.50;;;14.80;99.90;;;;;;4974414;28;20383;-90
2023/04/23 00:46:02;;;;;;;4.93;4.13;;;14.80;99.90;;;;;;4989421;28;20031;-90
2023/04/23 00:48:28;;;;;;;6.13;4.38;;;14.80;99.90;;;;;;4973781;28;20050;-90
2023/04/23 00:51:04;;;;;;;4.60;4.13;;;14.80;99.90;;;;;;4972809;28;20472;-90
2023/04/23 00:53:31;;;;;;;4.63;4.22;;;14.70;99.90;;;;;;4974351;28;20049;-89
2023/04/23 00:55:57;;;;;;;5.63;4.47;;;14.30;99.90;;;;;;4973138;28;20360;-90
2023/04/23 00:58:22;;;;;;;4.55;4.15;;;13.90;99.90;;;;;;4970831;28;20022;-90
2023/04/23 01:00:50;;;;;;;5.28;4.43;;;14.20;99.90;;;;;;4954931;29;20421;-89
2023/04/23 01:03:20;;;;;;;4.82;4.20;;;14.40;99.90;;;;;;4954956;29;20023;-89
2023/04/23 01:05:48;;;;;;;4.85;4.07;;;14.40;99.90;;;;;;4954748;29;20031;-90
2023/04/23 01:08:16;;;;;;;8.20;4.50;;;14.10;99.90;;;;;;4954911;29;20358;-89
2023/04/23 01:10:46;;;;;;;4.70;4.30;;;14.20;99.90;;;;;;4954495;28;20051;-90
2023/04/23 01:13:15;;;;;;;4.05;3.65;;;14.40;99.90;;;;;;4954752;29;20370;-90
2023/04/23 01:15:42;;;;;;;5.57;4.00;;;14.30;99.90;;;;;;4955246;29;20019;-90
2023/04/23 01:18:08;;;;;;;4.45;4.05;;;14.30;99.90;;;;;;4954451;29;20035;-89
2023/04/23 01:20:34;;;;;;;5.50;4.60;;;14.40;99.90;;;;;;4953236;28;20449;-90
2023/04/23 01:23:01;;;;;;;5.38;4.40;;;14.30;99.90;;;;;;4954486;29;20061;-89
2023/04/23 01:25:27;;;;;;;5.43;4.70;;;14.40;99.90;;;;;;4937288;29;20106;-89
2023/04/23 01:27:53;;;;;;;5.25;4.38;;;14.30;99.90;;;;;;4954328;29;20119;-90
2023/04/23 01:30:20;;;;;;;4.78;4.28;;;14.50;99.90;;;;;;4937331;29;20031;-89
2023/04/23 01:32:47;;;;;;;5.07;3.90;;;14.60;99.90;;;;;;4954063;29;20126;-89
2023/04/23 01:35:13;;;;;;;5.20;4.47;;;14.50;99.90;;;;;;4954311;29;20031;-90
2023/04/23 01:37:39;;;;;;;5.22;4.35;;;14.50;99.90;;;;;;4954443;29;20031;-90
2023/04/23 01:40:07;;;;;;;4.78;4.30;;;14.50;99.90;;;;;;4936978;29;20090;-90
2023/04/23 01:42:33;;;;;;;6.28;4.60;;;14.40;99.90;;;;;;4937378;29;20031;-90
2023/04/23 01:44:58;;;;;;;6.72;5.00;;;14.50;99.90;;;;;;4937019;29;20504;-90
2023/04/23 01:47:25;;;;;;;5.82;4.97;;;14.30;99.90;;;;;;4969836;28;20102;-89
2023/04/23 01:49:50;;;;;;;5.97;5.38;;;14.00;99.90;;;;;;4973292;28;20031;-90
2023/04/23 01:52:16;;;;;;;7.00;6.20;;;14.00;99.90;;;;;;4973501;28;20041;-89
2023/04/23 01:54:41;;;;;;;6.93;5.80;;;13.80;99.90;;;;;;4956235;28;20041;-90
2023/04/23 01:57:09;;;;;;;6.63;5.57;;;13.70;99.90;;;;;;4973168;28;20106;-89
2023/04/23 01:59:35;;;;;;;6.25;5.65;;;13.90;99.90;;;;;;4973130;28;20074;-90
2023/04/23 02:02:01;;;;;;;6.10;5.50;;;13.90;99.90;;;;;;4973166;28;20023;-89
2023/04/23 02:04:28;;;;;;;7.90;6.07;;;14.00;99.90;;;;;;4972795;28;20074;-90
2023/04/23 02:06:54;;;;;;;6.47;5.85;;;14.00;99.90;;;;;;4973306;28;20035;-90
2023/04/23 02:09:20;;;;;;;7.50;5.85;;;14.00;99.90;;;;;;4972048;28;20487;-89
2023/04/23 02:11:45;;;;;;;6.97;6.07;;;13.90;99.90;;;;;;4973285;28;20038;-89
2023/04/23 02:14:11;;;;;;;7.43;6.60;;;13.80;99.90;;;;;;4972888;28;20031;-90
2023/04/23 02:16:37;;;;;;;8.88;6.80;;;13.80;99.90;;;;;;4971545;28;20037;-90
2023/04/23 02:19:03;;;;;;;7.90;7.07;;;13.70;99.90;;;;;;4972585;28;20077;-89
2023/04/23 02:21:29;;;;;;;7.97;6.95;;;13.80;99.90;;;;;;4972798;28;20487;-90
2023/04/23 02:23:55;;;;;;;7.97;7.18;;;13.60;99.90;;;;;;4973213;28;20027;-89
2023/04/23 02:26:21;;;;;;;10.18;7.32;;;13.60;99.90;;;;;;4972797;28;20023;-90
2023/04/23 02:28:47;;;;;;;8.45;7.30;;;13.50;99.90;;;;;;4973477;28;20035;-89
2023/04/23 02:31:13;;;;;;;9.52;7.30;;;13.50;99.90;;;;;;4972241;28;20163;-89
2023/04/23 02:33:41;;;;;;;10.45;7.50;;;13.40;99.90;;;;;;4976734;28;20034;-90
2023/04/23 02:36:09;;;;;;;11.05;7.95;;;13.50;99.90;;;;;;4975582;28;20176;-89
2023/04/23 02:38:35;;;;;;;8.13;7.25;;;13.60;99.90;;;;;;4977145;28;20029;-89
2023/04/23 02:41:00;;;;;;;9.50;7.93;;;13.50;99.90;;;;;;4975546;28;20117;-89
2023/04/23 02:43:26;;;;;;;9.93;8.25;;;13.50;99.90;;;;;;4976496;28;20078;-90
2023/04/23 02:45:51;;;;;;;8.65;7.75;;;13.70;99.90;;;;;;4976052;28;20065;-89
2023/04/23 02:48:17;;;;;;;10.07;8.35;;;13.60;99.90;;;;;;4976562;28;20435;-90
2023/04/23 02:50:43;;;;;;;11.55;8.68;;;13.60;99.90;;;;;;4976792;28;20034;-89
2023/04/23 02:53:08;;;;;;;9.30;8.07;;;13.60;99.90;;;;;;4976526;28;20035;-89
2023/04/23 02:55:34;;;;;;;9.38;7.65;;;13.60;99.90;;;;;;4975220;28;20090;-90
2023/04/23 02:58:00;;;;;;;8.80;7.82;;;13.60;99.90;;;;;;4976887;28;20113;-90
2023/04/23 03:00:26;;;;;;;10.52;8.57;;;13.70;99.90;;;;;;4975648;28;20411;-89
2023/04/23 03:02:52;;;;;;;9.27;7.95;;;13.70;99.90;;;;;;4977134;28;20058;-89
2023/04/23 03:05:18;;;;;;;10.55;8.32;;;13.70;99.90;;;;;;4976367;28;20078;-90
2023/04/23 03:07:43;;;;;;;9.75;8.27;;;13.70;99.90;;;;;;4974968;28;20054;-89
2023/04/23 03:10:09;;;;;;;9.00;7.32;;;13.70;99.90;;;;;;4976495;28;20027;-90
2023/04/23 03:12:35;;;;;;;8.88;8.07;;;13.80;99.90;;;;;;4976878;28;20110;-89
2023/04/23 03:15:00;;;;;;;8.65;7.75;;;13.60;99.90;;;;;;4975693;28;20031;-90
2023/04/23 03:17:26;;;;;;;13.55;7.65;;;13.50;99.90;;;;;;4976282;28;20085;-90
2023/04/23 03:19:52;;;;;;;10.73;7.68;;;13.50;99.90;;;;;;4976340;28;20061;-90
2023/04/23 03:22:17;;;;;;;8.32;7.32;;;13.40;99.90;;;;;;4976107;28;20034;-90
2023/04/23 03:24:43;;;;;;;10.25;7.38;;;13.30;99.90;;;;;;4974955;28;20022;-89
2023/04/23 03:27:09;;;;;;;8.82;7.45;;;13.30;99.90;;;;;;4974503;28;20038;-90
2023/04/23 03:29:35;;;;;;;10.55;7.10;;;13.10;99.90;;;;;;4974288;28;20105;-89
2023/04/23 03:32:00;;;;;;;9.07;7.50;;;13.10;99.90;;;;;;4975670;28;20129;-89
2023/04/23 03:34:26;;;;;;;8.20;7.30;;;13.20;99.90;;;;;;4975625;28;20035;-89
2023/04/23 03:36:52;;;;;;;8.20;7.30;;;13.20;99.90;;;;;;4976291;28;20117;-89
2023/04/23 03:39:17;;;;;;;10.82;7.70;;;13.00;99.90;;;;;;4974532;28;20496;-90
2023/04/23 03:41:43;;;;;;;9.40;7.60;;;13.10;99.90;;;;;;4974360;28;20440;-90
2023/04/23 03:44:09;;;;;;;11.50;8.10;;;13.10;99.90;;;;;;4974847;28;20424;-89
2023/04/23 03:46:34;;;;;;;10.77;7.90;;;13.10;99.90;;;;;;4974462;28;20034;-90
2023/04/23 03:49:00;;;;;;;9.98;7.70;;;13.10;99.90;;;;;;4975471;28;20038;-90
2023/04/23 03:51:26;;;;;;;10.65;7.72;;;12.90;99.90;;;;;;4974363;28;20089;-89
2023/04/23 03:53:52;;;;;;;11.13;8.50;;;12.90;99.90;;;;;;4975254;28;20377;-89
2023/04/23 03:56:18;;;;;;;8.77;7.95;;;12.90;99.90;;;;;;4975338;28;20033;-89
2023/04/23 03:58:43;;;;;;;9.98;8.82;;;13.00;99.90;;;;;;4974512;28;20043;-89
2023/04/23 04:01:09;;;;;;;9.20;8.18;;;13.00;99.90;;;;;;4975543;28;20130;-89
2023/04/23 04:03:35;;;;;;;9.43;7.53;;;12.90;99.90;;;;;;4975402;28;20030;-90
2023/04/23 04:06:01;;;;;;;9.30;7.75;;;12.80;99.90;;;;;;4975488;28;20026;-89
2023/04/23 04:08:28;;;;;;;11.13;7.97;;;12.90;99.90;;;;;;4975377;28;20031;-90
2023/04/23 04:10:54;;;;;;;11.52;8.70;;;12.80;99.90;;;;;;4975404;28;20025;-90
2023/04/23 04:13:19;;;;;;;9.90;8.00;;;12.50;99.90;;;;;;4973551;28;20042;-89
2023/04/23 04:15:45;;;;;;;9.98;8.20;;;12.40;99.90;;;;;;4975317;28;20047;-89
2023/04/23 04:18:10;;;;;;;10.05;7.40;;;12.40;99.90;;;;;;4975016;28;20038;-89
2023/04/23 04:20:36;;;;;;;12.57;8.35;;;12.40;99.90;;;;;;4974966;28;20026;-90
2023/04/23 04:23:02;;;;;;;12.38;8.95;;;12.40;99.90;;;;;;4974297;28;20034;-89
2023/04/23 04:25:29;;;;;;;10.95;8.85;;;12.20;99.90;;;;;;4975078;28;20077;-90
2023/04/23 04:27:56;;;;;;;11.07;8.90;;;12.30;99.90;;;;;;4974231;28;20031;-89
2023/04/23 04:30:23;;;;;;;11.02;9.65;;;12.30;99.90;;;;;;4974711;28;20114;-89
2023/04/23 04:32:49;;;;;;;12.50;9.55;;;12.20;99.90;;;;;;4975088;28;20093;-90
2023/04/23 04:35:15;;;;;;;13.85;10.10;;;11.90;99.90;;;;;;4975062;28;20021;-89
2023/04/23 04:37:43;;;;;;;12.93;9.82;;;12.10;99.90;;;;;;4974652;28;20023;-89
2023/04/23 04:40:10;;;;;;;11.63;9.63;;;12.20;99.90;;;;;;4974998;28;20023;-90
2023/04/23 04:42:37;;;;;;;11.48;9.38;;;12.30;99.90;;;;;;4973716;28;20589;-89
2023/04/23 04:45:04;;;;;;;10.63;9.27;;;12.20;99.90;;;;;;4975055;28;20033;-90
2023/04/23 04:47:31;;;;;;;10.10;8.82;;;12.40;99.90;;;;;;4974668;28;20031;-90
2023/04/23 04:49:56;;;;;;;12.02;9.00;;;12.40;99.90;;;;;;4974489;28;20061;-90
2023/04/23 04:52:23;;;;;;;10.65;8.55;;;12.50;99.90;;;;;;4974201;28;20050;-90
2023/04/23 04:54:49;;;;;;;13.00;8.40;;;12.50;99.90;;;;;;4972864;28;20547;-90
2023/04/23 04:57:14;;;;;;;10.10;8.48;;;12.60;99.90;;;;;;4973321;28;20101;-89
2023/04/23 04:59:40;;;;;;;9.63;7.85;;;12.60;99.90;;;;;;4974375;28;20109;-89
2023/04/23 05:02:06;;;;;;;9.68;8.32;;;12.60;99.90;;;;;;4974141;28;20018;-89
2023/04/23 05:04:31;;;;;;;9.07;8.18;;;12.60;99.90;;;;;;4974078;28;20027;-89
2023/04/23 05:06:57;;;;;;;9.13;7.00;;;12.70;99.90;;;;;;4974453;28;20550;-90
2023/04/23 05:09:24;;;;;;;11.75;7.90;;;12.70;99.90;;;;;;4974378;28;20031;-90
2023/04/23 05:11:50;;;;;;;8.75;7.65;;;12.80;99.90;;;;;;4973571;28;20093;-90
2023/04/23 05:14:16;;;;;;;9.07;7.53;;;12.60;99.90;;;;;;4974082;28;20574;-89
2023/04/23 05:16:41;;;;;;;8.60;7.55;;;12.60;99.90;;;;;;4972702;28;20106;-89
2023/04/23 05:19:07;;;;;;;9.82;7.60;;;12.60;99.90;;;;;;4974341;28;20034;-89
2023/04/23 05:21:33;;;;;;;9.07;7.47;;;12.60;99.90;;;;;;4974413;28;20488;-89
2023/04/23 05:23:58;;;;;;;9.23;7.53;;;12.70;99.90;;;;;;4974323;28;20035;-88
2023/04/23 05:26:24;;;;;;;9.85;7.85;;;12.80;99.90;;;;;;4973909;28;20026;-89
2023/04/23 05:28:50;;;;;;;8.18;7.38;;;12.80;99.90;;;;;;4974153;28;20160;-89
2023/04/23 05:31:15;;;;;;;8.82;7.43;;;12.70;99.90;;;;;;4974178;28;20038;-89
2023/04/23 05:33:43;;;;;;;9.25;7.18;;;12.60;99.90;;;;;;4972657;28;20026;-90
2023/04/23 05:36:09;;;;;;;9.18;7.45;;;12.60;99.90;;;;;;4974120;28;20121;-89
2023/04/23 05:38:35;;;;;;;8.52;7.30;;;12.40;99.90;;;;;;4975648;28;20053;-93
2023/04/23 05:41:00;;;;;;;8.45;7.15;;;12.70;99.90;;;;;;4973808;28;20559;-89
2023/04/23 05:43:26;;;;;;;7.95;7.15;;;12.70;99.90;;;;;;4974194;28;20043;-89
2023/04/23 05:45:52;;;;;;;11.15;6.65;;;12.80;99.90;;;;;;4968996;28;20070;-90
2023/04/23 05:48:17;;;;;;;8.50;6.70;;;12.90;99.90;;;;;;4954640;29;20038;-89
2023/04/23 05:50:43;;;;;;;7.55;6.80;;;12.90;99.90;;;;;;4954974;29;20051;-90
2023/04/23 05:53:08;;;;;;;7.85;7.05;;;12.80;99.90;;;;;;4953587;29;20031;-89
2023/04/23 05:55:34;;;;;;;10.25;6.93;;;12.90;99.90;;;;;;4954002;29;20023;-92
2023/04/23 05:58:01;;;;;;;8.88;7.10;;;12.80;99.90;;;;;;4955225;29;20404;-91
2023/04/23 06:00:27;;;;;;;9.98;6.45;;;12.90;99.90;;;;;;4973510;28;20062;-93
2023/04/23 06:02:53;;;;;;;7.03;6.38;;;13.00;99.90;;;;;;4974080;28;20034;-91
2023/04/23 06:05:18;;;;;;;8.10;6.28;;;13.00;99.90;;;;;;4973972;28;20031;-90
2023/04/23 06:07:44;;;;;;;7.03;6.07;;;13.10;99.90;;;;;;4972164;28;20078;-90
2023/04/23 06:10:10;;;;;;;8.25;6.10;;;13.10;99.90;;;;;;4972716;28;20369;-86
2023/04/23 06:12:40;;;;;;;6.45;5.57;;;13.10;99.90;;;;;;4972567;28;20097;-87
2023/04/23 06:15:07;;;;;;;7.78;6.38;;;13.30;99.90;;;;;;4973720;28;20504;-90
2023/04/23 06:17:34;;;;;;;8.02;6.53;;;13.30;99.90;;;;;;4972110;28;20085;-90
2023/04/23 06:20:00;;;;;;;7.40;5.93;;;13.30;99.90;;;;;;4973643;28;20515;-89
2023/04/23 06:22:26;;;;;;;8.63;6.25;;;13.30;99.90;;;;;;4972616;28;20023;-88
2023/04/23 06:24:51;;;;;;;9.43;6.50;;;13.30;99.90;;;;;;4972956;28;20452;-85
2023/04/23 06:27:17;;;;;;;7.03;5.78;;;13.40;99.90;;;;;;4972927;28;20023;-84
2023/04/23 06:29:43;;;;;;;6.82;5.55;;;13.40;99.90;;;;;;4971190;28;20023;-86
2023/04/23 06:32:08;;;;;;;6.60;5.80;;;13.20;99.90;;;;;;4953682;29;20035;-86
2023/04/23 06:34:34;;;;;;;7.47;5.63;;;13.20;99.90;;;;;;4953853;28;20381;-81
2023/04/23 06:37:00;;;;;;;8.10;5.75;;;13.20;99.90;;;;;;4953412;29;20055;-83
2023/04/23 06:39:25;;;;;;;6.85;4.97;;;13.20;99.90;;;;;;4953074;29;20035;-83
2023/04/23 06:41:51;;;;;;;7.85;5.57;;;13.30;99.90;;;;;;4953703;29;20094;-83
2023/04/23 06:44:16;;;;;;;6.72;5.07;;;13.50;99.90;;;;;;4953466;29;20378;-85
2023/04/23 06:46:42;;;;;;;6.05;4.72;;;13.40;99.90;;;;;;4975379;28;20030;-81
2023/04/23 06:49:08;;;;;;;5.88;4.90;;;13.40;99.90;;;;;;4992035;28;20051;-83
2023/04/23 06:51:34;;;;;;;9.52;4.80;;;13.60;99.90;;;;;;4992072;28;20369;-85
2023/04/23 06:53:59;;;;;;;4.88;4.35;;;13.60;99.90;;;;;;4991843;28;20038;-83
2023/04/23 06:56:26;;;;;;;4.75;3.75;;;13.70;99.90;;;;;;4991811;28;20396;-82
2023/04/23 06:58:52;;;;;;;6.05;4.13;;;13.80;99.90;;;;;;4980425;28;20525;-82
2023/04/23 07:01:18;;;;;;;6.63;4.30;;;13.80;99.90;;;;;;4962438;28;20103;-82
2023/04/23 07:03:47;;;;;;;6.22;3.63;;;14.00;99.90;;;;;;4951903;29;20485;-82
2023/04/23 07:06:14;;;;;;;5.38;3.60;;;14.20;99.90;;;;;;4970223;28;20033;-86
2023/04/23 07:08:41;;;;;;;5.60;3.35;;;14.30;99.90;;;;;;4972686;28;20029;-85
2023/04/23 07:11:07;;;;;;;5.28;3.22;;;14.50;99.90;;;;;;4971954;28;20038;-84
2023/04/23 07:13:32;;;;;;;4.43;3.30;;;14.50;99.90;;;;;;4968701;28;20041;-82
2023/04/23 07:15:58;;;;;;;6.50;3.50;;;14.70;99.90;;;;;;4972256;28;20058;-83
2023/04/23 07:18:24;;;;;;;6.85;3.40;;;14.70;99.90;;;;;;4955373;28;20023;-83
2023/04/23 07:20:49;;;;;;;4.72;3.40;;;14.70;99.90;;;;;;4955997;29;20111;-82
2023/04/23 07:23:15;;;;;;;4.07;3.25;;;14.90;99.90;;;;;;4956488;29;20452;-88
2023/04/23 07:25:41;;;;;;;4.35;2.88;;;15.00;99.90;;;;;;4990710;28;20037;-87
2023/04/23 07:28:06;;;;;;;8.02;3.30;;;15.00;99.90;;;;;;4995214;28;20106;-87
2023/04/23 07:30:32;;;;;;;4.70;3.42;;;15.30;99.90;;;;;;4993533;28;20475;-88
2023/04/23 07:32:58;;;;;;;6.03;3.47;;;15.40;99.90;;;;;;4995181;28;20034;-87
2023/04/23 07:35:23;;;;;;;3.83;2.70;;;15.60;99.90;;;;;;4995126;28;20035;-86
2023/04/23 07:37:52;;;;;;;3.53;2.42;;;15.60;99.90;;;;;;4995284;28;20062;-84
2023/04/23 07:40:20;;;;;;;5.13;2.60;;;15.60;99.90;;;;;;4994821;28;20109;-84
2023/04/23 07:42:46;;;;;;;3.63;2.47;;;15.70;99.90;;;;;;4994900;28;20058;-84
2023/04/23 07:45:11;;;;;;;5.78;2.80;;;15.70;99.90;;;;;;4994744;28;20050;-83
2023/04/23 07:47:37;;;;;;;5.70;2.83;;;15.70;99.90;;;;;;4976531;28;20015;-87
2023/04/23 07:50:03;;;;;;;5.30;2.55;;;15.70;99.90;;;;;;4973966;28;20038;-84
2023/04/23 07:52:28;;;;;;;3.55;2.47;;;15.50;99.90;;;;;;4975559;28;20066;-87
2023/04/23 07:54:54;;;;;;;4.15;2.30;;;15.50;99.90;;;;;;4957335;28;20069;-86
2023/04/23 07:57:20;;;;;;;4.97;2.67;;;15.50;99.90;;;;;;4970529;28;20035;-88
2023/04/23 07:59:46;;;;;;;4.78;2.55;;;15.70;99.90;;;;;;4969577;28;20046;-86
2023/04/23 08:02:11;;;;;;;5.78;2.70;;;15.90;99.90;;;;;;4975539;28;20050;-86
2023/04/23 08:04:37;;;;;;;3.40;2.33;;;16.10;99.90;;;;;;4976674;28;20037;-86
2023/04/23 08:07:03;;;;;;;3.70;2.92;;;16.10;99.90;;;;;;4975435;28;20027;-87
2023/04/23 08:09:28;;;;;;;7.72;2.80;;;15.90;99.90;;;;;;4968781;28;20381;-85
2023/04/23 08:11:54;;;;;;;5.28;2.83;;;16.10;99.90;;;;;;4972323;28;20093;-84
2023/04/23 08:14:19;;;;;;;6.60;3.42;;;15.90;99.90;;;;;;4975035;28;20038;-84
2023/04/23 08:16:45;;;;;;;3.90;3.13;;;16.10;99.90;;;;;;4974794;28;20428;-88
2023/04/23 08:19:11;;;;;;;4.75;2.88;;;16.20;99.90;;;;;;4974472;28;20109;-84
2023/04/23 08:21:36;;;;;;;6.07;2.72;;;16.50;99.90;;;;;;4975105;28;20023;-90
2023/04/23 08:24:03;;;;;;;3.92;2.88;;;16.50;99.90;;;;;;4973802;28;20427;-88
2023/04/23 08:26:29;;;;;;;4.10;2.60;;;16.40;99.90;;;;;;4974609;28;20030;-88
2023/04/23 08:28:55;;;;;;;5.00;2.60;;;16.60;99.90;;;;;;4974808;28;20034;-90
2023/04/23 08:31:21;;;;;;;4.20;2.55;;;16.70;99.90;;;;;;4975101;28;20019;-87
2023/04/23 08:33:46;;;;;;;5.78;2.75;;;16.70;99.90;;;;;;4973971;28;20050;-84
2023/04/23 08:36:14;;;;;;;3.35;2.60;;;16.60;99.90;;;;;;4973104;28;20138;-85
2023/04/23 08:38:40;;;;;;;3.92;2.50;;;16.80;99.90;;;;;;4975406;28;20511;-86
2023/04/23 08:41:09;;;;;;;7.72;3.22;;;17.00;99.90;;;;;;4973698;28;20031;-87
2023/04/23 08:43:50;;;;;;;4.95;2.67;;;17.00;99.90;;;;;;4974991;28;20030;-93
2023/04/23 08:46:18;;;;;;;5.45;2.58;;;16.90;99.90;;;;;;4973178;28;20110;-87
2023/04/23 08:48:46;;;;;;;4.82;2.47;;;17.10;99.90;;;;;;4973497;28;20396;-87
2023/04/23 08:51:17;;;;;;;3.80;2.67;;;17.40;99.90;;;;;;4974378;28;20081;-89
2023/04/23 08:53:44;;;;;;;3.28;2.15;;;17.60;99.90;;;;;;4975749;28;20066;-93
2023/04/23 08:56:12;;;;;;;3.28;2.10;;;17.80;99.90;;;;;;4972468;28;20027;-88
2023/04/23 08:58:39;;;;;;;3.92;2.60;;;18.10;99.90;;;;;;4972246;28;20541;-87
2023/04/23 09:01:06;;;;;;;2.72;2.35;;;18.40;99.90;;;;;;4974242;28;20468;-88
2023/04/23 09:03:33;;;;;;;4.70;2.13;;;18.60;99.90;;;;;;4974324;28;20030;-94
2023/04/23 09:05:58;;;;;;;3.63;2.10;;;18.40;99.90;;;;;;4972622;28;20162;-92
2023/04/23 09:08:24;;;;;;;3.85;2.22;;;18.40;99.90;;;;;;4974899;28;20097;-92
2023/04/23 09:10:51;;;;;;;3.85;2.25;;;18.40;99.90;;;;;;4975775;28;20404;-91
2023/04/23 09:13:17;;;;;;;3.35;2.20;;;18.30;99.90;;;;;;4974499;28;20026;-86
2023/04/23 09:15:43;;;;;;;4.18;2.50;;;18.20;99.90;;;;;;4980777;28;20449;-87
2023/04/23 09:18:09;;;;;;;3.35;2.38;;;18.30;99.90;;;;;;4992763;28;20506;-81
2023/04/23 09:20:35;;;;;;;5.93;2.40;;;17.90;99.90;;;;;;4986856;28;20027;-85
2023/04/23 09:23:06;;;;;;;3.67;2.00;;;18.10;99.90;;;;;;4967937;28;20032;-84
2023/04/23 09:25:32;;;;;;;3.03;2.28;;;18.10;99.90;;;;;;4963242;28;20460;-90
2023/04/23 09:28:00;;;;;;;4.50;2.20;;;18.00;99.90;;;;;;4972845;28;20031;-85
2023/04/23 09:30:26;;;;;;;4.22;2.42;;;18.10;99.90;;;;;;4971530;28;20030;-87
2023/04/23 09:32:52;;;;;;;2.67;2.03;;;18.30;99.90;;;;;;4960425;28;20031;-92
2023/04/23 09:35:18;;;;;;;4.05;2.63;;;18.50;99.90;;;;;;4965043;28;20108;-87
2023/04/23 09:37:47;;;;;;;3.17;2.50;;;18.50;99.90;;;;;;4972398;28;20110;-84
2023/04/23 09:40:25;;;;;;;4.43;2.20;;;18.40;99.90;;;;;;4957042;28;20194;-86
2023/04/23 09:42:53;;;;;;;3.42;2.20;;;18.20;99.90;;;;;;4971819;28;20034;-94
2023/04/23 09:45:19;;;;;;;4.80;2.22;;;18.10;99.90;;;;;;4962051;28;20039;-92
2023/04/23 09:47:50;;;;;;;3.70;2.00;;;18.30;99.90;;;;;;4983369;28;20023;-84
2023/04/23 09:50:15;;;;;;;3.33;1.90;;;18.40;99.90;;;;;;4964946;28;20030;-84
2023/04/23 09:52:41;;;;;;;2.60;2.10;;;18.40;99.90;;;;;;4965876;28;20512;-88
2023/04/23 09:55:07;;;;;;;4.05;2.50;;;18.30;99.90;;;;;;4967608;28;20027;-88
2023/04/23 09:57:37;;;;;;;4.70;2.10;;;18.30;99.90;;;;;;4972861;28;20042;-89
2023/04/23 10:00:21;;;;;;;3.25;2.20;;;18.10;99.90;;;;;;4973426;28;20058;-91
2023/04/23 10:02:49;;;;;;;3.85;2.20;;;18.40;99.90;;;;;;4954466;28;20031;-91
2023/04/23 10:05:19;;;;;;;4.43;2.20;;;18.50;99.90;;;;;;4955034;28;20114;-90
2023/04/23 10:07:47;;;;;;;3.75;2.13;;;18.60;99.90;;;;;;4953566;29;20054;-90
2023/04/23 10:10:17;;;;;;;4.22;2.60;;;18.50;99.90;;;;;;4954991;28;20031;-87
2023/04/23 10:12:44;;;;;;;5.20;2.50;;;18.60;99.90;;;;;;4960803;28;20030;-89
2023/04/23 10:15:10;;;;;;;4.03;2.28;;;18.70;99.90;;;;;;4964028;28;20043;-87
2023/04/23 10:17:37;;;;;;;2.80;2.15;;;18.40;99.90;;;;;;4954512;29;20023;-90
2023/04/23 10:20:04;;;;;;;3.60;2.50;;;18.50;99.90;;;;;;4967870;28;20058;-90
2023/04/23 10:22:32;;;;;;;4.65;2.35;;;18.40;99.90;;;;;;4972900;28;20027;-90
2023/04/23 10:25:00;;;;;;;4.53;2.30;;;18.20;99.90;;;;;;4972391;28;20023;-90
2023/04/23 10:27:28;;;;;;;5.55;2.60;;;18.50;99.90;;;;;;4973972;28;20376;-92
2023/04/23 10:29:56;;;;;;;3.45;1.92;;;18.60;99.90;;;;;;4985809;28;20038;-87
2023/04/23 10:32:22;;;;;;;2.78;2.13;;;18.70;99.90;;;;;;4955145;28;20503;-88
2023/04/23 10:34:49;;;;;;;3.83;2.28;;;18.70;99.90;;;;;;4953658;29;20039;-88
2023/04/23 10:37:18;;;;;;;2.10;1.80;;;18.80;99.90;;;;;;4959043;28;20027;-89
2023/04/23 10:39:46;;;;;;;5.25;2.10;;;18.80;99.90;;;;;;4966843;28;20038;-88
2023/04/23 10:42:12;;;;;;;3.65;1.90;;;18.80;99.90;;;;;;4954298;29;20024;-92
2023/04/23 10:44:40;;;;;;;2.97;1.88;;;18.90;99.90;;;;;;4961689;28;20392;-89
2023/04/23 10:47:10;;;;;;;2.63;1.60;;;18.90;99.90;;;;;;4986305;28;20033;-88
2023/04/23 10:49:37;;;;;;;4.22;2.17;;;18.90;99.90;;;;;;4992512;28;20169;-87
2023/04/23 10:52:14;;;;;;;3.22;1.80;;;18.80;99.90;;;;;;4992230;28;20109;-90
2023/04/23 10:54:41;;;;;;;5.65;2.33;;;19.00;99.90;;;;;;4994761;28;20042;-87
2023/04/23 10:57:08;;;;;;;3.17;1.80;;;18.90;99.90;;;;;;4985393;28;20623;-87
2023/04/23 10:59:38;;;;;;;3.50;2.00;;;19.10;99.90;;;;;;4975748;28;20526;-81
2023/04/23 11:02:08;;;;;;;4.05;1.65;;;19.20;99.90;;;;;;4975488;28;20014;-86
2023/04/23 11:04:40;;;;;;;3.13;2.05;;;19.00;99.90;;;;;;4976651;28;20042;-83
2023/04/23 11:07:07;;;;;;;2.47;1.55;;;19.00;99.90;;;;;;4974244;28;20029;-85
2023/04/23 11:09:41;;;;;;;7.25;1.52;;;19.00;99.90;;;;;;4975770;28;20101;-86
2023/04/23 11:12:27;;;;;;;1.90;1.70;;;18.80;99.90;;;;;;4975281;28;20027;-92
2023/04/23 11:14:54;;;;;;;3.40;2.00;;;19.00;99.90;;;;;;4969549;28;20043;-91
2023/04/23 11:17:42;;;;;;;3.30;2.10;;;19.20;99.90;;;;;;4977904;28;20118;-89
2023/04/23 11:20:13;;;;;;;3.67;1.60;;;19.00;99.90;;;;;;4972552;28;20035;-90
2023/04/23 11:22:42;;;;;;;3.28;1.90;;;19.00;99.90;;;;;;4977046;28;20110;-90
2023/04/23 11:25:11;;;;;;;4.85;1.80;;;19.10;99.90;;;;;;4977457;28;20038;-90
2023/04/23 11:27:42;;;;;;;3.85;1.90;;;19.20;99.90;;;;;;4976073;28;20037;-90
2023/04/23 11:30:15;;;;;;;3.83;1.73;;;19.30;99.90;;;;;;4976587;28;20026;-89
2023/04/23 11:32:44;;;;;;;2.83;1.60;;;19.10;99.90;;;;;;4976479;28;20098;-90
2023/04/23 11:35:10;;;;;;;4.00;1.55;;;19.20;99.90;;;;;;4976596;28;20066;-90
2023/04/23 11:37:44;;;;;;;3.22;1.80;;;19.30;99.90;;;;;;4977095;28;20091;-87
2023/04/23 11:40:13;;;;;;;3.53;1.88;;;19.50;99.90;;;;;;4958882;28;20062;-87
2023/04/23 11:42:56;;;;;;;2.42;1.77;;;19.90;99.90;;;;;;4956288;29;20038;-88
2023/04/23 11:45:24;;;;;;;4.30;1.80;;;19.90;99.90;;;;;;4956800;28;20069;-88
2023/04/23 11:47:54;;;;;;;4.30;1.80;;;19.70;99.90;;;;;;4994628;28;20054;-87
2023/04/23 11:50:22;;;;;;;2.40;1.58;;;19.30;99.90;;;;;;4995435;28;20033;-88
2023/04/23 11:52:48;;;;;;;3.28;1.80;;;19.10;99.90;;;;;;4995082;28;20442;-88
2023/04/23 11:55:15;;;;;;;3.03;1.75;;;19.20;99.90;;;;;;4995286;28;20118;-87
2023/04/23 11:57:45;;;;;;;3.75;1.85;;;19.10;99.90;;;;;;4994784;28;20018;-87
2023/04/23 12:00:21;;;;;;;3.63;2.00;;;19.10;99.90;;;;;;4976613;28;20129;-88
2023/04/23 12:02:55;;;;;;;3.47;1.67;;;18.20;99.90;;;;;;4975727;28;20034;-88
2023/04/23 12:05:22;;;;;;;2.00;1.60;;;18.60;99.90;;;;;;4969792;28;20039;-88
2023/04/23 12:07:50;;;;;;;2.45;1.60;;;18.70;99.90;;;;;;4975808;28;20034;-88
2023/04/23 12:10:18;;;;;;;2.75;1.77;;;19.00;99.90;;;;;;4975694;28;20038;-88
2023/04/23 12:12:43;;;;;;;3.10;1.75;;;19.10;99.90;;;;;;4975180;28;20038;-88
2023/04/23 12:15:09;;;;;;;3.22;1.58;;;19.20;99.90;;;;;;4974086;28;20476;-88
2023/04/23 12:17:35;;;;;;;3.15;1.67;;;19.10;99.90;;;;;;4975941;28;20027;-88
2023/04/23 12:20:06;;;;;;;2.05;1.60;;;19.10;99.90;;;;;;4974195;28;20031;-88
2023/04/23 12:22:31;;;;;;;3.28;1.63;;;19.30;99.90;;;;;;4975341;28;20120;-89
2023/04/23 12:24:59;;;;;;;4.80;1.90;;;19.40;99.90;;;;;;4975218;28;20031;-89
2023/04/23 12:27:25;;;;;;;3.05;1.70;;;19.50;99.90;;;;;;4974885;28;20031;-89
2023/04/23 12:30:00;;;;;;;2.13;1.70;;;19.50;99.90;;;;;;4975162;28;20112;-89
2023/04/23 12:32:26;;;;;;;3.58;2.00;;;20.00;99.90;;;;;;4975008;28;20023;-89
2023/04/23 12:34:54;;;;;;;2.42;2.10;;;20.50;99.90;;;;;;4975530;28;20042;-89
2023/04/23 12:37:28;;;;;;;4.35;1.60;;;20.10;99.90;;;;;;4989943;28;20031;-89
2023/04/23 12:39:55;;;;;;;2.70;1.60;;;19.70;99.90;;;;;;4989446;28;20019;-89
2023/04/23 12:42:21;;;;;;;4.20;1.80;;;19.30;99.90;;;;;;4975026;28;20031;-89
2023/04/23 12:44:47;;;;;;;2.08;1.85;;;19.30;99.90;;;;;;4990351;28;20038;-89